Time;durP1;ratioP1;P1;durP2;ratioP2;P2;SDS_P1;SDS_P2;PMS_P1;PMS_P2;Temp;Humidity;BMP_temperature;BMP_pressure;BME280_temperature;BME280_humidity;BME280_pressure;Samples;Min_cycle;Max_cycle;Signal;HPM_P1;HPM_P2
2021/06/03 00:00:43;;;;;;;4.72;3.00;;;;;;;19.93;65.44;101198.59;4984000;28;20190;-80
2021/06/03 00:03:11;;;;;;;3.47;2.80;;;;;;;19.93;64.82;101198.59;5000484;28;20182;-78
2021/06/03 00:05:39;;;;;;;4.05;3.25;;;;;;;19.94;65.40;101194.69;4985045;28;20239;-79
2021/06/03 00:08:06;;;;;;;3.53;3.22;;;;;;;19.86;64.30;101203.75;4983832;28;20210;-79
2021/06/03 00:10:37;;;;;;;3.55;3.20;;;;;;;19.81;65.79;101200.28;4986732;28;20225;-80
2021/06/03 00:13:03;;;;;;;3.42;3.13;;;;;;;19.80;66.66;101198.69;4985532;28;20613;-78
2021/06/03 00:15:31;;;;;;;3.30;3.00;;;;;;;19.79;66.47;101200.59;5017339;28;20239;-78
2021/06/03 00:18:01;;;;;;;3.50;3.17;;;;;;;19.70;66.94;101199.75;4987173;28;20209;-78
2021/06/03 00:20:33;;;;;;;3.13;2.83;;;;;;;19.75;66.49;101193.31;4987261;28;20227;-77
2021/06/03 00:22:58;;;;;;;3.33;3.10;;;;;;;19.55;67.37;101182.03;4985775;28;20681;-79
2021/06/03 00:25:26;;;;;;;4.00;2.83;;;;;;;19.63;67.69;101192.28;5002065;28;20225;-79
2021/06/03 00:27:54;;;;;;;3.00;2.80;;;;;;;19.56;67.30;101191.91;5001633;28;20213;-79
2021/06/03 00:30:20;;;;;;;3.25;2.95;;;;;;;19.62;66.93;101196.97;5000905;28;20189;-79
2021/06/03 00:32:50;;;;;;;3.17;2.80;;;;;;;19.61;67.11;101194.53;5001306;28;20173;-78
2021/06/03 00:35:16;;;;;;;3.10;2.83;;;;;;;19.42;67.76;101191.22;5016020;28;20200;-79
2021/06/03 00:37:49;;;;;;;3.30;3.00;;;;;;;19.53;68.13;101181.53;4984871;28;20586;-78
2021/06/03 00:40:15;;;;;;;3.60;3.20;;;;;;;19.45;68.29;101182.31;4971533;28;20256;-79
2021/06/03 00:42:45;;;;;;;4.50;3.10;;;;;;;19.55;67.32;101180.09;5018567;28;20192;-78
2021/06/03 00:45:16;;;;;;;3.47;2.70;;;;;;;19.47;68.46;101174.56;5000989;28;20229;-79
2021/06/03 00:47:45;;;;;;;2.88;2.67;;;;;;;19.36;68.89;101175.97;5019053;28;20578;-77
2021/06/03 00:50:18;;;;;;;3.30;3.00;;;;;;;19.30;69.08;101183.56;5001026;28;20197;-79
2021/06/03 00:52:52;;;;;;;3.20;2.90;;;;;;;19.31;69.23;101178.84;4986036;28;20686;-78
2021/06/03 00:55:22;;;;;;;3.05;2.80;;;;;;;19.37;68.50;101175.63;4986875;28;20185;-79
2021/06/03 00:57:53;;;;;;;3.28;2.97;;;;;;;19.36;68.63;101179.53;5001888;28;20197;-78
2021/06/03 01:00:19;;;;;;;3.50;3.20;;;;;;;19.27;68.96;101177.84;4984399;28;20181;-77
2021/06/03 01:02:45;;;;;;;3.30;3.00;;;;;;;19.23;69.26;101179.63;4984522;28;20184;-78
2021/06/03 01:05:20;;;;;;;3.00;2.78;;;;;;;19.21;69.56;101175.53;5016639;28;20305;-77
2021/06/03 01:07:49;;;;;;;3.63;2.83;;;;;;;19.15;69.54;101177.63;4984443;28;20682;-80
2021/06/03 01:10:30;;;;;;;2.88;2.67;;;;;;;19.09;69.54;101175.31;4985682;28;20302;-78
2021/06/03 01:13:10;;;;;;;4.88;3.10;;;;;;;18.96;70.19;101179.75;4983527;28;20180;-77
2021/06/03 01:15:38;;;;;;;3.10;2.80;;;;;;;18.79;71.84;101183.50;4997686;28;20225;-78
2021/06/03 01:18:08;;;;;;;3.33;3.03;;;;;;;18.82;71.81;101186.44;4983756;28;20210;-79
2021/06/03 01:20:38;;;;;;;4.22;3.10;;;;;;;18.88;71.54;101180.50;4982366;28;20220;-79
2021/06/03 01:23:24;;;;;;;3.40;3.10;;;;;;;18.67;72.96;101189.56;5000232;28;20706;-77
2021/06/03 01:25:52;;;;;;;3.50;3.20;;;;;;;18.60;73.30;101193.88;4998657;28;20235;-78
2021/06/03 01:28:20;;;;;;;5.18;3.35;;;;;;;18.50;74.02;101183.13;5014280;28;20936;-77
2021/06/03 01:30:55;;;;;;;3.55;3.03;;;;;;;18.55;73.53;101197.59;4985658;28;20225;-77
2021/06/03 01:33:30;;;;;;;3.80;3.03;;;;;;;18.54;73.89;101195.94;4983098;28;20181;-78
2021/06/03 01:36:00;;;;;;;4.57;3.50;;;;;;;18.54;74.24;101200.66;4964665;28;20229;-78
2021/06/03 01:38:35;;;;;;;4.43;3.05;;;;;;;18.55;74.91;101202.25;4964672;28;20804;-79
2021/06/03 01:41:01;;;;;;;3.28;2.97;;;;;;;18.60;73.82;101204.91;4978562;28;20226;-79
2021/06/03 01:43:28;;;;;;;4.20;2.88;;;;;;;18.63;73.22;101193.28;4980021;28;20200;-77
2021/06/03 01:46:00;;;;;;;3.30;3.00;;;;;;;18.59;73.30;101193.09;4979005;28;20233;-79
2021/06/03 01:48:27;;;;;;;5.13;3.30;;;;;;;18.48;73.85;101206.56;4980053;28;20205;-78
2021/06/03 01:50:59;;;;;;;3.92;3.25;;;;;;;18.40;74.07;101196.31;4979913;28;20669;-78
2021/06/03 01:53:27;;;;;;;5.22;3.38;;;;;;;18.34;74.89;101201.09;4979771;28;20209;-78
2021/06/03 01:55:53;;;;;;;6.00;2.90;;;;;;;18.29;74.84;101203.97;4962949;28;20241;-79
2021/06/03 01:58:22;;;;;;;3.85;3.30;;;;;;;18.26;75.30;101192.75;4980064;28;20711;-80
2021/06/03 02:00:52;;;;;;;3.25;2.95;;;;;;;18.30;74.94;101185.53;4979566;28;20251;-79
2021/06/03 02:03:25;;;;;;;3.15;2.85;;;;;;;18.27;74.93;101184.22;4994545;28;20292;-78
2021/06/03 02:05:52;;;;;;;3.17;2.88;;;;;;;18.21;75.13;101188.22;4978510;28;20237;-78
2021/06/03 02:08:20;;;;;;;3.60;3.15;;;;;;;18.12;75.64;101181.81;4996838;28;20206;-79
2021/06/03 02:10:59;;;;;;;3.50;3.20;;;;;;;18.06;75.93;101184.13;4966832;28;20228;-77
2021/06/03 02:13:30;;;;;;;5.88;3.22;;;;;;;18.09;76.01;101191.78;4982783;28;20213;-80
2021/06/03 02:15:57;;;;;;;4.15;3.72;;;;;;;18.02;76.08;101191.38;4982010;28;20228;-79
2021/06/03 02:18:39;;;;;;;4.38;3.42;;;;;;;17.93;76.76;101194.03;4996459;28;20593;-77
2021/06/03 02:21:08;;;;;;;4.47;3.00;;;;;;;17.91;77.25;101189.94;4981206;28;20221;-77
2021/06/03 02:23:37;;;;;;;3.33;3.03;;;;;;;17.80;77.89;101200.38;5011612;28;20188;-79
2021/06/03 02:26:06;;;;;;;3.70;3.40;;;;;;;17.60;78.64;101194.47;4997196;28;20237;-78
2021/06/03 02:28:37;;;;;;;3.58;3.10;;;;;;;17.68;78.88;101193.75;4996307;28;20209;-79
2021/06/03 02:31:03;;;;;;;5.60;3.20;;;;;;;17.73;78.54;101193.66;4979188;28;20225;-78
2021/06/03 02:33:33;;;;;;;4.10;3.40;;;;;;;17.72;78.52;101197.50;4979464;28;20185;-79
2021/06/03 02:36:01;;;;;;;3.70;3.40;;;;;;;17.77;78.20;101191.91;4980895;28;20248;-79
2021/06/03 02:38:29;;;;;;;3.40;3.10;;;;;;;17.70;78.30;101191.50;4998021;28;20220;-79
2021/06/03 02:41:06;;;;;;;3.33;3.00;;;;;;;17.67;78.85;101189.34;4995856;28;20229;-78
2021/06/03 02:43:33;;;;;;;3.65;3.35;;;;;;;17.69;78.85;101200.03;4982024;28;20190;-79
2021/06/03 02:46:00;;;;;;;3.58;3.30;;;;;;;17.66;78.72;101193.25;4980312;28;20260;-79
2021/06/03 02:48:29;;;;;;;3.90;3.38;;;;;;;17.64;78.93;101198.22;4981658;28;20280;-78
2021/06/03 02:50:55;;;;;;;4.47;3.50;;;;;;;17.60;79.73;101194.47;4995642;28;20312;-78
2021/06/03 02:53:23;;;;;;;4.57;3.35;;;;;;;17.52;79.72;101197.91;4981021;28;20263;-78
2021/06/03 02:55:58;;;;;;;3.97;3.40;;;;;;;17.56;79.94;101198.91;4986391;28;20228;-79
2021/06/03 02:58:27;;;;;;;4.20;3.40;;;;;;;17.56;80.40;101209.91;5017416;28;20586;-80
2021/06/03 03:00:56;;;;;;;3.78;3.13;;;;;;;17.55;80.88;101197.31;5000554;28;20259;-80
2021/06/03 03:03:23;;;;;;;3.80;3.50;;;;;;;17.53;80.77;101198.72;5016600;28;20189;-79
2021/06/03 03:05:51;;;;;;;4.30;3.15;;;;;;;17.44;80.91;101198.63;5000382;28;20274;-78
2021/06/03 03:08:23;;;;;;;3.78;3.20;;;;;;;17.44;81.50;101206.03;4986025;28;20212;-80
2021/06/03 03:10:55;;;;;;;3.80;3.50;;;;;;;17.37;81.56;101200.13;5001045;28;20222;-78
2021/06/03 03:13:25;;;;;;;3.70;3.40;;;;;;;17.34;81.51;101207.06;4986107;28;20196;-79
2021/06/03 03:15:53;;;;;;;4.85;3.60;;;;;;;17.31;82.04;101206.84;5014024;28;20236;-79
2021/06/03 03:18:23;;;;;;;4.93;3.22;;;;;;;17.32;81.89;101213.16;5019435;28;20209;-79
2021/06/03 03:20:56;;;;;;;3.85;3.47;;;;;;;17.26;82.11;101209.69;4985204;28;20224;-78
2021/06/03 03:23:27;;;;;;;4.85;3.78;;;;;;;17.23;83.01;101224.00;4987863;28;20279;-80
2021/06/03 03:26:00;;;;;;;4.28;3.83;;;;;;;17.23;82.51;101215.75;5021295;28;20228;-78
2021/06/03 03:28:31;;;;;;;4.03;3.67;;;;;;;17.31;82.77;101212.34;4985080;28;20212;-78
2021/06/03 03:31:03;;;;;;;4.30;3.90;;;;;;;17.32;82.46;101216.69;4977311;28;20722;-79
2021/06/03 03:33:32;;;;;;;4.80;3.78;;;;;;;17.42;82.00;101231.06;5003246;28;20187;-78
2021/06/03 03:35:58;;;;;;;4.10;3.70;;;;;;;17.23;82.74;101221.25;4985766;28;20224;-79
2021/06/03 03:38:33;;;;;;;5.32;4.28;;;;;;;17.22;83.19;101235.31;5005469;28;20220;-80
2021/06/03 03:41:04;;;;;;;4.32;3.80;;;;;;;17.30;82.80;101234.59;5003948;28;20232;-81
2021/06/03 03:43:30;;;;;;;6.03;3.75;;;;;;;17.35;82.53;101236.13;5003002;28;20181;-77
2021/06/03 03:46:01;;;;;;;4.97;3.83;;;;;;;17.42;82.64;101236.56;5001601;28;20263;-79
2021/06/03 03:48:28;;;;;;;5.65;3.78;;;;;;;17.32;83.31;101230.44;5003421;28;20251;-78
2021/06/03 03:50:58;;;;;;;5.03;3.70;;;;;;;17.32;83.42;101221.38;5001896;28;20232;-77
2021/06/03 03:53:29;;;;;;;4.35;3.97;;;;;;;17.20;84.29;101218.31;5018675;28;20192;-78
2021/06/03 03:56:01;;;;;;;4.28;3.92;;;;;;;17.22;84.05;101224.31;4983201;28;20745;-77
2021/06/03 03:58:31;;;;;;;4.13;3.70;;;;;;;17.28;83.90;101217.63;5003073;28;20214;-78
2021/06/03 04:01:02;;;;;;;4.53;4.13;;;;;;;17.36;82.75;101226.78;4984074;28;20221;-80
2021/06/03 04:03:32;;;;;;;4.40;3.97;;;;;;;17.42;83.00;101233.81;4981506;28;20260;-79
2021/06/03 04:06:01;;;;;;;4.65;3.75;;;;;;;17.63;81.82;101218.56;4979299;28;20290;-78
2021/06/03 04:08:32;;;;;;;4.38;3.47;;;;;;;17.44;82.47;101228.84;4985534;28;20216;-77
2021/06/03 04:10:59;;;;;;;4.97;3.78;;;;;;;17.52;82.82;101227.31;5002139;28;20300;-77
2021/06/03 04:13:29;;;;;;;4.47;4.07;;;;;;;17.61;81.89;101229.03;5015203;28;20666;-78
2021/06/03 04:16:04;;;;;;;4.00;3.60;;;;;;;17.80;81.15;101238.00;5015464;28;20232;-78
2021/06/03 04:18:32;;;;;;;4.43;4.03;;;;;;;17.95;80.06;101238.53;4988617;28;20205;-78
2021/06/03 04:20:59;;;;;;;3.85;3.55;;;;;;;17.86;80.99;101236.81;5005741;28;20224;-79
2021/06/03 04:23:32;;;;;;;4.55;4.15;;;;;;;17.99;80.89;101236.78;4996677;28;20213;-80
2021/06/03 04:26:05;;;;;;;4.40;4.00;;;;;;;18.06;79.79;101231.69;5012344;28;20316;-80
2021/06/03 04:28:36;;;;;;;3.95;3.53;;;;;;;17.79;80.62;101228.94;4995740;28;20209;-79
2021/06/03 04:31:04;;;;;;;5.78;4.30;;;;;;;18.05;80.22;101237.50;5003477;28;20304;-80
2021/06/03 04:33:30;;;;;;;4.53;4.13;;;;;;;18.16;79.08;101237.81;5017154;28;20204;-79
2021/06/03 04:35:56;;;;;;;4.97;3.80;;;;;;;18.22;79.16;101236.59;5014636;28;20251;-79
2021/06/03 04:38:26;;;;;;;4.10;3.70;;;;;;;18.41;77.85;101234.53;5000684;28;20216;-79
2021/06/03 04:40:52;;;;;;;4.75;4.35;;;;;;;18.53;78.42;101246.63;4982892;28;20291;-79
2021/06/03 04:43:22;;;;;;;5.60;4.07;;;;;;;18.61;76.44;101239.56;5017589;28;20200;-79
2021/06/03 04:45:48;;;;;;;4.57;4.00;;;;;;;18.61;76.53;101236.81;4996967;28;20241;-76
2021/06/03 04:48:14;;;;;;;6.25;5.03;;;;;;;18.59;77.16;101242.63;4968052;28;20213;-78
2021/06/03 04:50:40;;;;;;;5.40;4.10;;;;;;;18.77;75.98;101240.81;4994809;28;20225;-78
2021/06/03 04:53:08;;;;;;;4.50;4.10;;;;;;;18.76;76.42;101239.22;4995821;28;20213;-78
2021/06/03 04:55:34;;;;;;;5.03;4.00;;;;;;;18.61;75.60;101239.56;4979701;28;20217;-78
2021/06/03 04:57:59;;;;;;;4.40;4.05;;;;;;;18.75;75.87;101245.81;4979900;28;20581;-79
2021/06/03 05:00:29;;;;;;;4.35;3.95;;;;;;;18.85;76.01;101251.13;4978762;28;20177;-78
2021/06/03 05:02:58;;;;;;;5.22;3.80;;;;;;;18.59;78.72;101248.13;4994691;28;20181;-77
2021/06/03 05:05:24;;;;;;;4.20;3.80;;;;;;;18.89;76.38;101245.47;4980219;28;20232;-78
2021/06/03 05:07:53;;;;;;;4.40;4.05;;;;;;;18.76;76.97;101247.47;4998864;28;20201;-79
2021/06/03 05:10:22;;;;;;;4.32;3.92;;;;;;;18.85;77.17;101246.41;4984209;28;20628;-78
2021/06/03 05:12:49;;;;;;;6.07;4.18;;;;;;;19.06;75.85;101248.38;4980913;28;20212;-78
2021/06/03 05:15:17;;;;;;;4.07;3.67;;;;;;;18.94;75.56;101242.59;4963331;28;20182;-79
2021/06/03 05:17:43;;;;;;;4.40;4.00;;;;;;;19.02;75.94;101241.84;4976965;28;20702;-78
2021/06/03 05:20:16;;;;;;;4.40;3.60;;;;;;;19.24;75.02;101228.06;5004876;28;20193;-79
2021/06/03 05:22:44;;;;;;;5.10;3.50;;;;;;;19.42;74.12;101235.31;4973899;28;20185;-78
2021/06/03 05:25:14;;;;;;;4.25;3.85;;;;;;;19.42;73.43;101229.81;4984608;28;20233;-78
2021/06/03 05:27:45;;;;;;;4.35;3.95;;;;;;;19.49;73.32;101250.28;4983688;28;20209;-78
2021/06/03 05:30:16;;;;;;;4.03;3.47;;;;;;;19.42;73.40;101251.84;5012101;28;20277;-79
2021/06/03 05:32:44;;;;;;;4.95;3.75;;;;;;;19.01;75.67;101259.53;5011911;28;20197;-78
2021/06/03 05:35:13;;;;;;;3.83;3.47;;;;;;;19.20;76.14;101254.63;4990878;28;20825;-79
2021/06/03 05:37:42;;;;;;;4.35;3.80;;;;;;;19.37;75.23;101265.75;5003645;28;20284;-78
2021/06/03 05:40:11;;;;;;;3.80;3.50;;;;;;;19.45;74.72;101267.75;4979581;28;20189;-79
2021/06/03 05:42:39;;;;;;;4.18;3.22;;;;;;;19.57;74.21;101268.00;4968109;28;20759;-79
2021/06/03 05:45:08;;;;;;;4.40;4.00;;;;;;;19.73;74.05;101257.03;4992560;28;20886;-79
2021/06/03 05:47:35;;;;;;;4.15;3.80;;;;;;;19.64;72.74;101260.88;5012413;28;20276;-78
2021/06/03 05:50:09;;;;;;;4.07;3.70;;;;;;;19.65;73.69;101264.44;4993073;28;20217;-79
2021/06/03 05:52:38;;;;;;;5.03;3.90;;;;;;;19.66;72.69;101271.59;4992840;28;20209;-79
2021/06/03 05:55:05;;;;;;;5.88;3.70;;;;;;;19.70;73.77;101260.41;4993735;28;20185;-79
2021/06/03 05:57:32;;;;;;;4.38;3.42;;;;;;;19.76;73.79;101261.09;4977320;28;20208;-80
2021/06/03 05:59:58;;;;;;;3.47;2.92;;;;;;;19.94;73.99;101265.59;4979658;28;20189;-78
2021/06/03 06:07:53;;;;;;;3.90;3.60;;;;;;;20.37;72.20;101270.13;5012363;28;20201;-79
2021/06/03 06:10:21;;;;;;;5.55;3.70;;;;;;;20.27;69.03;101271.22;4994767;28;20188;-78
2021/06/03 06:12:47;;;;;;;5.75;3.40;;;;;;;20.84;68.15;101265.31;4979109;28;20753;-78
2021/06/03 06:15:13;;;;;;;4.25;3.20;;;;;;;21.21;67.85;101273.75;4993813;28;20187;-78
2021/06/03 06:17:39;;;;;;;3.90;3.60;;;;;;;21.56;67.11;101272.59;4993832;28;20204;-77
2021/06/03 06:20:05;;;;;;;4.03;3.22;;;;;;;21.68;65.08;101277.09;4977029;28;20180;-76
2021/06/03 06:22:33;;;;;;;3.40;3.10;;;;;;;21.70;64.19;101274.81;4992683;28;20295;-76
2021/06/03 06:25:04;;;;;;;3.25;2.90;;;;;;;21.85;62.69;101284.50;4994403;28;20209;-78
2021/06/03 06:27:32;;;;;;;3.90;2.97;;;;;;;21.52;61.94;101275.19;4993634;28;20212;-78
2021/06/03 06:30:05;;;;;;;3.85;3.20;;;;;;;21.67;63.57;101277.44;5017926;28;20188;-78
2021/06/03 06:32:34;;;;;;;3.47;3.10;;;;;;;21.92;63.61;101277.31;5015274;28;20223;-78
2021/06/03 06:34:59;;;;;;;3.90;3.08;;;;;;;22.18;62.06;101265.03;5018525;28;20283;-79
2021/06/03 06:37:25;;;;;;;3.30;3.00;;;;;;;22.42;61.44;101276.28;5017020;28;20285;-77
2021/06/03 06:39:50;;;;;;;3.80;3.40;;;;;;;22.39;59.07;101276.94;5016921;28;20237;-77
2021/06/03 06:42:18;;;;;;;3.38;2.97;;;;;;;22.61;59.52;101279.41;5016532;28;20605;-76
2021/06/03 06:44:46;;;;;;;3.85;2.97;;;;;;;22.47;61.33;101279.69;5000636;28;20256;-77
2021/06/03 06:47:12;;;;;;;3.08;2.88;;;;;;;22.57;60.34;101284.00;5016178;28;20243;-79
2021/06/03 06:49:38;;;;;;;3.33;3.00;;;;;;;22.84;58.73;101281.53;5000614;28;20184;-78
2021/06/03 06:52:06;;;;;;;3.47;3.00;;;;;;;22.68;58.44;101286.03;5000407;28;20282;-79
2021/06/03 06:54:34;;;;;;;4.95;3.00;;;;;;;22.67;59.63;101289.16;5003182;28;20195;-79
2021/06/03 06:56:59;;;;;;;3.35;3.00;;;;;;;22.95;57.91;101291.09;5001725;28;20228;-79
2021/06/03 06:59:27;;;;;;;3.90;3.60;;;;;;;23.22;57.57;101291.31;5003618;28;20182;-79
2021/06/03 07:01:55;;;;;;;3.50;3.20;;;;;;;23.47;56.20;101291.09;5017931;28;20227;-76
2021/06/03 07:04:20;;;;;;;8.07;3.08;;;;;;;23.50;55.10;101298.72;5016843;28;20208;-77
2021/06/03 07:06:48;;;;;;;3.40;3.10;;;;;;;23.16;57.95;101298.25;5032969;28;20228;-79
2021/06/03 07:09:16;;;;;;;3.00;2.80;;;;;;;22.93;57.66;101299.75;5033691;28;20204;-80
2021/06/03 07:11:46;;;;;;;3.28;2.92;;;;;;;23.24;56.91;101294.56;5016205;28;20228;-77
2021/06/03 07:14:14;;;;;;;7.03;3.17;;;;;;;23.30;57.69;101293.22;5001150;28;20208;-76
2021/06/03 07:16:42;;;;;;;3.78;3.00;;;;;;;23.40;56.97;101292.78;4999769;28;20224;-78
2021/06/03 07:19:10;;;;;;;3.20;2.72;;;;;;;23.90;56.34;101281.16;5016949;28;20671;-79
2021/06/03 07:21:35;;;;;;;4.97;3.08;;;;;;;;;;4999299;28;20227;-77
2021/06/03 07:24:07;;;;;;;4.20;3.25;;;;;;;23.73;56.31;101286.09;5032456;28;20191;-78
2021/06/03 07:26:34;;;;;;;3.47;3.00;;;;;;;23.63;54.78;101298.44;5032747;28;20234;-78
2021/06/03 07:29:04;;;;;;;3.53;3.05;;;;;;;23.78;55.52;101297.78;5033473;28;20173;-77
2021/06/03 07:31:35;;;;;;;3.42;2.78;;;;;;;23.66;55.33;101302.50;5027498;28;20300;-76
2021/06/03 07:34:04;;;;;;;3.25;2.95;;;;;;;24.04;53.23;101284.41;4997268;28;20681;-76
2021/06/03 07:36:30;;;;;;;4.25;2.90;;;;;;;24.26;54.94;101289.50;4976864;28;20225;-78
2021/06/03 07:38:56;;;;;;;3.13;2.90;;;;;;;24.24;53.77;101286.28;4992806;28;20252;-78
2021/06/03 07:41:22;;;;;;;3.50;3.20;;;;;;;24.59;50.46;101289.06;5001178;28;20290;-78
2021/06/03 07:43:47;;;;;;;4.25;3.28;;;;;;;24.56;51.12;101275.88;5015299;28;20184;-78
2021/06/03 07:46:15;;;;;;;4.03;3.05;;;;;;;24.53;51.52;101284.91;5031802;28;20228;-77
2021/06/03 07:48:42;;;;;;;5.80;3.25;;;;;;;24.50;51.67;101273.66;5019581;28;20204;-79
2021/06/03 07:51:11;;;;;;;5.25;3.90;;;;;;;24.55;50.43;101285.34;4997172;28;20625;-78
2021/06/03 07:53:37;;;;;;;3.33;2.80;;;;;;;24.49;52.89;101278.41;5012133;28;20714;-78
2021/06/03 07:56:07;;;;;;;5.38;2.88;;;;;;;24.91;51.49;101280.53;4980250;28;20224;-78
2021/06/03 07:58:37;;;;;;;4.00;2.97;;;;;;;24.92;50.44;101286.91;4995193;28;20895;-77
2021/06/03 08:01:08;;;;;;;4.40;2.88;;;;;;;24.82;50.98;101279.06;5012174;28;20259;-78
2021/06/03 08:03:36;;;;;;;3.65;2.78;;;;;;;25.13;49.83;101283.63;4979589;28;20185;-79
2021/06/03 08:06:04;;;;;;;3.47;2.70;;;;;;;25.13;50.33;101278.06;4980735;28;20229;-78
2021/06/03 08:08:35;;;;;;;3.75;3.03;;;;;;;25.56;50.02;101284.44;4980517;28;20836;-78
2021/06/03 08:11:03;;;;;;;3.08;2.80;;;;;;;25.53;50.15;101281.59;4996250;28;20295;-77
2021/06/03 08:13:34;;;;;;;2.75;2.55;;;;;;;25.54;49.04;101277.63;4995839;28;20181;-77
2021/06/03 08:16:02;;;;;;;3.00;2.78;;;;;;;25.74;49.37;101271.84;4996244;28;20221;-77
2021/06/03 08:18:27;;;;;;;4.70;3.17;;;;;;;26.19;47.23;101283.34;5013112;28;20886;-78
2021/06/03 08:20:57;;;;;;;3.92;2.80;;;;;;;26.24;47.99;101274.78;5013117;28;20229;-78
2021/06/03 08:23:22;;;;;;;3.53;2.70;;;;;;;25.97;46.25;101278.44;4980531;28;20205;-78
2021/06/03 08:25:51;;;;;;;3.58;2.88;;;;;;;26.06;47.86;101279.88;4979407;28;20840;-77
2021/06/03 08:28:21;;;;;;;3.20;2.90;;;;;;;26.43;46.33;101278.44;5017538;28;20328;-77
2021/06/03 08:30:49;;;;;;;2.95;2.65;;;;;;;26.25;45.24;101274.41;5000369;28;20756;-77
2021/06/03 08:33:17;;;;;;;2.67;2.47;;;;;;;26.24;47.68;101283.94;5015099;28;20254;-78
2021/06/03 08:35:47;;;;;;;3.40;2.90;;;;;;;26.71;45.74;101286.28;5015186;28;20713;-78
2021/06/03 08:38:13;;;;;;;4.88;2.90;;;;;;;26.48;45.19;101287.34;5032013;28;20694;-79
2021/06/03 08:40:44;;;;;;;2.75;2.55;;;;;;;26.25;45.46;101287.53;5015525;28;20208;-77
2021/06/03 08:43:10;;;;;;;3.17;2.88;;;;;;;26.32;46.55;101283.75;5015829;28;20743;-78
2021/06/03 08:45:39;;;;;;;3.33;2.72;;;;;;;26.64;45.26;101281.72;5015177;28;20315;-79
2021/06/03 08:48:05;;;;;;;2.95;2.50;;;;;;;27.12;45.35;101291.19;5000199;28;20204;-77
2021/06/03 08:50:34;;;;;;;3.22;2.60;;;;;;;27.31;44.52;101285.63;5014472;28;20255;-77
2021/06/03 08:53:02;;;;;;;5.20;2.60;;;;;;;27.53;43.66;101286.50;5014080;28;20188;-79
2021/06/03 08:58:16;;;;;;;3.22;2.30;;;;;;;27.20;43.42;101287.41;5033591;28;20200;-77
2021/06/03 09:00:45;;;;;;;2.88;2.58;;;;;;;27.59;43.71;101292.59;5017778;28;20235;-79
2021/06/03 09:03:10;;;;;;;4.53;2.60;;;;;;;27.82;42.08;101294.25;5000902;28;20199;-77
2021/06/03 09:05:36;;;;;;;2.53;2.30;;;;;;;27.19;44.26;101299.72;5015071;28;20361;-78
2021/06/03 09:08:26;;;;;;;3.22;2.58;;;;;;;27.30;42.56;101292.38;5014908;28;20697;-78
2021/06/03 09:11:05;;;;;;;2.70;2.50;;;;;;;27.46;42.89;101284.78;5030631;28;20263;-78
2021/06/03 09:13:35;;;;;;;3.00;2.40;;;;;;;26.89;42.86;101292.28;5031480;28;20239;-77
2021/06/03 09:16:11;;;;;;;3.70;2.45;;;;;;;26.95;42.63;101286.03;5015079;28;20223;-78
2021/06/03 09:18:45;;;;;;;2.85;2.53;;;;;;;26.88;43.28;101291.47;5015285;28;20898;-76
2021/06/03 09:21:25;;;;;;;4.22;2.75;;;;;;;27.07;43.69;101294.31;5015300;28;20223;-78
2021/06/03 09:23:58;;;;;;;2.72;2.53;;;;;;;27.03;41.17;101300.97;5031510;28;20842;-79
2021/06/03 09:26:24;;;;;;;3.08;2.40;;;;;;;27.06;42.30;101297.44;5011096;28;20717;-78
2021/06/03 09:28:50;;;;;;;2.70;2.50;;;;;;;27.52;42.75;101296.06;4978616;28;20289;-77
2021/06/03 09:31:36;;;;;;;2.53;2.33;;;;;;;27.62;40.73;101301.06;4975878;28;20724;-80
2021/06/03 09:34:05;;;;;;;3.53;2.50;;;;;;;27.58;43.06;101300.19;4991399;28;20201;-77
2021/06/03 09:36:44;;;;;;;2.80;2.60;;;;;;;27.84;43.34;101297.50;4991588;28;20777;-80
2021/06/03 09:39:15;;;;;;;3.97;2.50;;;;;;;27.74;42.29;101300.06;4993382;28;20279;-77
2021/06/03 09:41:48;;;;;;;4.45;2.60;;;;;;;27.44;41.37;101301.09;4976575;28;20248;-77
2021/06/03 09:44:17;;;;;;;4.75;2.42;;;;;;;27.61;40.78;101305.00;4961121;28;20189;-77
2021/06/03 09:46:47;;;;;;;2.60;2.40;;;;;;;26.88;42.02;101308.19;4974678;28;20698;-77
2021/06/03 09:49:20;;;;;;;2.85;2.40;;;;;;;27.24;41.38;101305.03;4992323;28;20174;-77
2021/06/03 09:51:48;;;;;;;2.80;2.60;;;;;;;27.36;41.74;101307.66;4959853;28;20221;-78
2021/06/03 09:54:15;;;;;;;2.53;2.33;;;;;;;27.32;40.27;101306.78;4993337;28;20200;-77
2021/06/03 09:56:45;;;;;;;3.08;2.50;;;;;;;27.45;40.90;101311.84;4991325;28;20221;-77
2021/06/03 09:59:31;;;;;;;2.55;2.28;;;;;;;27.24;39.36;101321.78;4977057;28;20192;-77
2021/06/03 10:01:58;;;;;;;3.35;2.40;;;;;;;27.42;40.49;101311.75;4979926;28;20239;-79
2021/06/03 10:04:32;;;;;;;3.67;2.50;;;;;;;27.52;39.61;101318.41;4996929;28;20249;-77
2021/06/03 10:07:16;;;;;;;3.55;2.47;;;;;;;27.66;38.78;101324.28;4999542;28;20236;-78
2021/06/03 10:10:03;;;;;;;3.45;2.38;;;;;;;27.70;40.03;101322.34;4991554;28;20220;-77
2021/06/03 10:12:33;;;;;;;2.38;2.28;;;;;;;28.02;38.66;101332.16;5010055;28;20213;-79
2021/06/03 10:15:04;;;;;;;2.22;2.03;;;;;;;28.05;38.20;101332.22;4994986;28;20335;-78
2021/06/03 10:17:33;;;;;;;5.20;2.38;;;;;;;27.61;38.32;101332.94;4979004;28;20244;-78
2021/06/03 10:20:12;;;;;;;2.35;2.10;;;;;;;28.17;38.21;101337.66;4980522;28;20213;-79
2021/06/03 10:22:39;;;;;;;3.65;2.63;;;;;;;28.32;39.06;101337.50;4977802;28;20234;-79
2021/06/03 10:25:08;;;;;;;2.63;2.42;;;;;;;28.11;38.75;101332.72;4994368;28;20209;-78
2021/06/03 10:27:44;;;;;;;2.40;2.22;;;;;;;27.88;39.05;101332.69;4994527;28;20205;-79
2021/06/03 10:30:12;;;;;;;4.47;2.17;;;;;;;28.40;38.37;101327.25;4996678;28;20165;-79
2021/06/03 10:32:39;;;;;;;2.70;2.20;;;;;;;28.07;38.65;101332.66;5010960;28;20929;-80
2021/06/03 10:35:09;;;;;;;2.35;2.22;;;;;;;27.98;39.58;101328.47;5010767;28;20535;-79
2021/06/03 10:37:35;;;;;;;3.05;2.35;;;;;;;27.60;39.15;101320.16;4963723;28;20205;-79
2021/06/03 10:40:08;;;;;;;2.70;2.28;;;;;;;27.80;40.09;101321.75;4979981;28;20280;-78
2021/06/03 10:42:34;;;;;;;2.53;2.30;;;;;;;27.15;39.89;101323.97;4959510;28;20271;-78
2021/06/03 10:45:00;;;;;;;2.67;2.47;;;;;;;26.95;nan;101324.31;4959864;28;20217;-77
2021/06/03 10:47:28;;;;;;;2.40;2.20;;;;;;;27.08;42.16;101327.41;4973079;28;20224;-78
2021/06/03 10:49:56;;;;;;;4.13;2.20;;;;;;;26.85;42.92;101324.84;5000971;28;20883;-76
2021/06/03 10:52:24;;;;;;;2.50;2.30;;;;;;;26.69;41.92;101320.47;4975886;28;20251;-77
2021/06/03 10:54:54;;;;;;;2.97;2.47;;;;;;;26.37;41.91;101324.47;4980637;28;20654;-78
2021/06/03 10:57:25;;;;;;;3.60;2.25;;;;;;;25.79;43.69;101330.09;5000900;28;20251;-75
2021/06/03 10:59:52;;;;;;;3.67;2.38;;;;;;;26.19;43.04;101322.38;4996913;28;20183;-79
2021/06/03 11:02:22;;;;;;;2.92;2.20;;;;;;;26.46;43.21;101328.69;5014533;28;20224;-78
2021/06/03 11:04:48;;;;;;;2.75;2.30;;;;;;;26.39;41.33;101322.13;5015796;28;20229;-78
2021/06/03 11:07:14;;;;;;;3.63;2.33;;;;;;;26.52;43.68;101323.63;5010214;28;20248;-78
2021/06/03 11:09:44;;;;;;;2.65;2.05;;;;;;;27.01;41.93;101320.84;5008420;28;20211;-79
2021/06/03 11:12:11;;;;;;;15.30;12.70;;;;;;;26.77;42.83;101315.50;4990543;28;20248;-80
2021/06/03 11:15:03;;;;;;;17.35;12.80;;;;;;;26.86;43.31;101316.13;4991096;28;20193;-79
2021/06/03 11:17:53;;;;;;;3.05;2.85;;;;;;;27.05;44.09;101318.97;4997577;28;20281;-77
2021/06/03 11:20:44;;;;;;;3.42;2.22;;;;;;;26.91;43.91;101315.06;4997375;28;20585;-78
2021/06/03 11:23:35;;;;;;;2.35;2.13;;;;;;;26.42;41.88;101315.84;4977806;28;20193;-78
2021/06/03 11:26:05;;;;;;;4.57;2.70;;;;;;;26.35;42.12;101321.22;4994237;28;20233;-79
2021/06/03 11:28:33;;;;;;;2.40;2.20;;;;;;;26.32;41.75;101316.41;4971704;28;20205;-79
2021/06/03 11:31:20;;;;;;;2.10;2.00;;;;;;;26.53;42.48;101308.53;4998234;28;20217;-78
2021/06/03 11:34:09;;;;;;;2.30;2.10;;;;;;;26.54;42.65;101312.97;5013864;28;20205;-79
2021/06/03 11:36:38;;;;;;;3.28;2.33;;;;;;;26.68;42.79;101302.13;5014164;28;20228;-78
2021/06/03 11:39:43;;;;;;;2.78;2.42;;;;;;;26.70;42.59;101306.97;4982216;28;20199;-79
2021/06/03 11:42:15;;;;;;;2.40;2.20;;;;;;;26.45;44.21;101301.19;4961034;28;20226;-78
2021/06/03 11:45:01;;;;;;;3.28;2.70;;;;;;;27.24;42.44;101302.22;4992566;28;20221;-77
2021/06/03 11:47:27;;;;;;;3.80;2.35;;;;;;;27.09;44.20;101301.13;5013243;28;20706;-77